createdAt,value
2018-07-24T00:00:12.665Z,0.00
2018-07-24T00:01:12.642Z,0.00
2018-07-24T00:02:12.632Z,0.00
2018-07-24T00:03:12.641Z,0.00
2018-07-24T00:04:12.612Z,0.00
2018-07-24T00:05:12.611Z,0.00
2018-07-24T00:06:12.602Z,0.00
2018-07-24T00:07:12.580Z,0.00
2018-07-24T00:08:12.569Z,0.00
2018-07-24T00:09:12.576Z,0.00
2018-07-24T00:10:12.544Z,0.00
2018-07-24T00:11:12.535Z,0.00
2018-07-24T00:12:12.525Z,0.00
2018-07-24T00:13:12.530Z,0.00
2018-07-24T00:14:12.504Z,0.00
2018-07-24T00:15:12.492Z,0.00
2018-07-24T00:16:12.497Z,0.00
2018-07-24T00:17:12.470Z,0.00
2018-07-24T00:18:12.473Z,0.00
2018-07-24T00:19:12.449Z,0.00
2018-07-24T00:20:12.441Z,0.00
2018-07-24T00:21:12.443Z,0.00
2018-07-24T00:22:12.415Z,0.00
2018-07-24T00:23:12.410Z,0.00
2018-07-24T00:24:12.398Z,0.00
2018-07-24T00:25:12.387Z,0.00
2018-07-24T00:26:12.414Z,0.00
2018-07-24T00:27:12.362Z,0.00
2018-07-24T00:28:12.354Z,0.00
2018-07-24T00:29:12.341Z,0.00
2018-07-24T00:30:12.331Z,0.00
2018-07-24T00:31:12.323Z,0.00
2018-07-24T00:32:12.336Z,0.00
2018-07-24T00:33:12.301Z,0.00
2018-07-24T00:34:12.292Z,0.00
2018-07-24T00:35:12.279Z,0.00
2018-07-24T00:36:12.266Z,0.00
2018-07-24T00:37:12.256Z,0.00
2018-07-24T00:38:12.259Z,0.00
2018-07-24T00:39:12.237Z,0.00
2018-07-24T00:40:12.239Z,0.00
2018-07-24T00:41:12.215Z,0.00
2018-07-24T00:42:12.200Z,0.00
2018-07-24T00:43:12.193Z,0.00
2018-07-24T00:44:12.181Z,0.00
2018-07-24T00:45:12.195Z,0.00
2018-07-24T00:46:12.160Z,0.00
2018-07-24T00:47:12.148Z,0.00
2018-07-24T00:48:12.139Z,0.00
2018-07-24T00:49:12.128Z,0.00
2018-07-24T00:50:12.150Z,0.00
2018-07-24T00:51:12.106Z,0.00
2018-07-24T00:52:12.094Z,0.00
2018-07-24T00:53:12.082Z,0.00
2018-07-24T00:54:12.101Z,0.00
2018-07-24T00:55:12.061Z,0.00
2018-07-24T00:56:12.075Z,0.00
2018-07-24T00:57:12.041Z,0.00
2018-07-24T00:58:12.030Z,0.00
2018-07-24T00:59:12.018Z,0.00
2018-07-24T01:00:12.010Z,0.00
2018-07-24T01:01:11.999Z,0.00
2018-07-24T01:02:11.997Z,0.00
2018-07-24T01:03:11.973Z,0.00
2018-07-24T01:04:11.964Z,0.00
2018-07-24T01:05:11.956Z,0.00
2018-07-24T01:06:12.007Z,0.00
2018-07-24T01:07:11.953Z,0.00
2018-07-24T01:08:11.921Z,0.00
2018-07-24T01:09:11.913Z,0.00
2018-07-24T01:10:11.906Z,0.00
2018-07-24T01:11:11.893Z,0.00
2018-07-24T01:12:11.881Z,0.00
2018-07-24T01:13:11.896Z,0.00
2018-07-24T01:14:11.903Z,0.00
2018-07-24T01:15:11.846Z,0.00
2018-07-24T01:16:11.838Z,0.00
2018-07-24T01:17:11.830Z,0.00
2018-07-24T01:18:11.816Z,0.00
2018-07-24T01:19:11.825Z,0.00
2018-07-24T01:20:11.795Z,0.00
2018-07-24T01:21:11.786Z,0.00
2018-07-24T01:22:11.772Z,0.00
2018-07-24T01:23:11.763Z,0.00
2018-07-24T01:24:11.750Z,0.00
2018-07-24T01:25:11.755Z,0.00
2018-07-24T01:26:11.732Z,0.00
2018-07-24T01:27:11.734Z,0.00
2018-07-24T01:28:11.710Z,0.00
2018-07-24T01:29:11.698Z,0.00
2018-07-24T01:30:11.700Z,0.00
2018-07-24T01:31:11.675Z,0.00
2018-07-24T01:32:11.666Z,0.00
2018-07-24T01:33:11.654Z,0.00
2018-07-24T01:34:11.646Z,0.00
2018-07-24T01:35:11.645Z,0.00
2018-07-24T01:36:11.625Z,0.00
2018-07-24T01:37:11.615Z,0.00
2018-07-24T01:38:11.609Z,0.00
2018-07-24T01:39:11.593Z,0.00
2018-07-24T01:40:11.582Z,0.00
2018-07-24T01:41:11.582Z,0.00
2018-07-24T01:42:11.557Z,0.00
2018-07-24T01:43:11.567Z,0.00
2018-07-24T01:44:11.536Z,0.00
2018-07-24T01:45:11.528Z,0.00
2018-07-24T01:46:11.517Z,0.00
2018-07-24T01:47:11.519Z,0.00
2018-07-24T01:48:11.501Z,0.00
2018-07-24T01:49:11.497Z,0.00
2018-07-24T01:50:11.472Z,0.00
2018-07-24T01:51:11.461Z,0.00
2018-07-24T01:52:11.452Z,0.00
2018-07-24T01:53:11.442Z,0.00
2018-07-24T01:54:11.447Z,0.00
2018-07-24T01:55:11.422Z,0.00
2018-07-24T01:56:11.406Z,0.00
2018-07-24T01:57:11.395Z,0.00
2018-07-24T01:58:11.388Z,0.00
2018-07-24T01:59:11.378Z,0.00
2018-07-24T02:00:11.381Z,0.00
2018-07-24T02:01:11.353Z,0.00
2018-07-24T02:02:11.342Z,0.00
2018-07-24T02:03:11.331Z,0.00
2018-07-24T02:04:11.323Z,0.00
2018-07-24T02:05:11.323Z,0.00
2018-07-24T02:06:11.299Z,0.00
2018-07-24T02:07:11.292Z,0.00
2018-07-24T02:08:11.277Z,0.00
2018-07-24T02:09:11.268Z,0.00
2018-07-24T02:10:11.273Z,0.00
2018-07-24T02:11:11.250Z,0.00
2018-07-24T02:12:11.235Z,0.00
2018-07-24T02:13:11.227Z,0.00
2018-07-24T02:14:11.215Z,0.00
2018-07-24T02:15:11.217Z,0.00
2018-07-24T02:16:11.196Z,0.00
2018-07-24T02:17:11.182Z,0.00
2018-07-24T02:18:11.171Z,0.00
2018-07-24T02:19:11.163Z,0.00
2018-07-24T02:20:11.193Z,0.00
2018-07-24T02:21:11.142Z,0.00
2018-07-24T02:22:11.130Z,0.00
2018-07-24T02:23:11.118Z,0.00
2018-07-24T02:24:11.107Z,0.00
2018-07-24T02:25:11.100Z,0.00
2018-07-24T02:26:11.098Z,0.00
2018-07-24T02:27:11.074Z,0.00
2018-07-24T02:28:11.064Z,0.00
2018-07-24T02:29:11.053Z,0.00
2018-07-24T02:30:11.042Z,0.00
2018-07-24T02:31:11.045Z,0.00
2018-07-24T02:32:11.021Z,0.00
2018-07-24T02:33:11.014Z,0.00
2018-07-24T02:34:11.000Z,0.00
2018-07-24T02:35:10.990Z,0.00
2018-07-24T02:36:10.994Z,0.00
2018-07-24T02:37:10.971Z,0.00
2018-07-24T02:38:10.958Z,0.00
2018-07-24T02:39:10.947Z,0.00
2018-07-24T02:40:10.945Z,0.00
2018-07-24T02:41:10.924Z,0.00
2018-07-24T02:42:10.927Z,0.00
2018-07-24T02:43:10.906Z,0.00
2018-07-24T02:44:10.896Z,0.00
2018-07-24T02:45:10.882Z,0.00
2018-07-24T02:46:10.873Z,0.00
2018-07-24T02:47:10.870Z,0.00
2018-07-24T02:48:10.851Z,0.00
2018-07-24T02:49:10.839Z,0.00
2018-07-24T02:50:10.830Z,0.00
2018-07-24T02:51:10.817Z,0.00
2018-07-24T02:52:10.839Z,0.00
2018-07-24T02:53:10.796Z,4.00
2018-07-24T02:54:10.788Z,4.00
2018-07-24T02:55:10.777Z,4.00
2018-07-24T02:56:10.768Z,0.00
2018-07-24T02:57:10.752Z,4.00
2018-07-24T02:58:10.761Z,4.00
2018-07-24T02:59:10.734Z,4.00
2018-07-24T03:00:10.720Z,4.00
2018-07-24T03:01:10.713Z,8.00
2018-07-24T03:02:10.703Z,8.00
2018-07-24T03:03:10.702Z,4.00
2018-07-24T03:04:10.686Z,8.00
2018-07-24T03:05:10.668Z,8.00
2018-07-24T03:06:10.656Z,12.00
2018-07-24T03:07:10.645Z,12.00
2018-07-24T03:08:10.647Z,16.00
2018-07-24T03:09:10.623Z,16.00
2018-07-24T03:10:10.613Z,20.00
2018-07-24T03:11:10.600Z,24.00
2018-07-24T03:12:10.613Z,24.00
2018-07-24T03:13:10.579Z,28.00
2018-07-24T03:14:10.578Z,36.00
2018-07-24T03:15:10.558Z,40.00
2018-07-24T03:16:10.579Z,44.00
2018-07-24T03:17:10.540Z,48.00
2018-07-24T03:18:10.548Z,52.00
2018-07-24T03:19:10.514Z,60.00
2018-07-24T03:20:10.504Z,68.00
2018-07-24T03:21:10.491Z,80.00
2018-07-24T03:22:10.484Z,88.00
2018-07-24T03:23:10.473Z,100.00
2018-07-24T03:24:10.474Z,108.00
2018-07-24T03:25:10.453Z,124.00
2018-07-24T03:26:10.441Z,132.00
2018-07-24T03:27:10.432Z,148.00
2018-07-24T03:28:10.430Z,164.00
2018-07-24T03:29:10.409Z,180.00
2018-07-24T03:30:10.397Z,200.00
2018-07-24T03:31:10.398Z,220.00
2018-07-24T03:32:10.383Z,240.00
2018-07-24T03:33:10.378Z,260.00
2018-07-24T03:34:10.351Z,284.00
2018-07-24T03:35:10.341Z,304.00
2018-07-24T03:36:10.329Z,328.00
2018-07-24T03:37:10.334Z,356.00
2018-07-24T03:38:10.311Z,380.00
2018-07-24T03:39:10.296Z,412.00
2018-07-24T03:40:10.305Z,440.00
2018-07-24T03:41:10.279Z,472.00
2018-07-24T03:42:10.272Z,500.00
2018-07-24T03:43:10.276Z,532.00
2018-07-24T03:44:10.246Z,564.00
2018-07-24T03:45:10.288Z,600.00
2018-07-24T03:46:10.224Z,636.00
2018-07-24T03:47:10.211Z,676.00
2018-07-24T03:48:10.199Z,708.00
2018-07-24T03:49:10.201Z,748.00
2018-07-24T03:50:10.178Z,788.00
2018-07-24T03:51:10.165Z,828.00
2018-07-24T03:52:10.157Z,868.00
2018-07-24T03:53:10.193Z,908.00
2018-07-24T03:54:10.136Z,948.00
2018-07-24T03:55:10.128Z,992.00
2018-07-24T03:56:10.115Z,1036.00
2018-07-24T03:57:10.100Z,1080.00
2018-07-24T03:58:10.090Z,1120.00
2018-07-24T03:59:10.095Z,1164.00
2018-07-24T04:00:10.069Z,1208.00
2018-07-24T04:01:10.055Z,1252.00
2018-07-24T04:02:10.070Z,1296.00
2018-07-24T04:03:10.036Z,1344.00
2018-07-24T04:04:10.038Z,1388.00
2018-07-24T04:05:10.031Z,1432.00
2018-07-24T04:06:09.999Z,1476.00
2018-07-24T04:07:09.988Z,1520.00
2018-07-24T04:08:09.980Z,1568.00
2018-07-24T04:09:09.966Z,1608.00
2018-07-24T04:10:09.954Z,1656.00
2018-07-24T04:11:09.962Z,1704.00
2018-07-24T04:12:09.934Z,1748.00
2018-07-24T04:13:09.927Z,1788.00
2018-07-24T04:14:09.910Z,1836.00
2018-07-24T04:15:09.899Z,1880.00
2018-07-24T04:16:09.891Z,1924.00
2018-07-24T04:17:09.891Z,1968.00
2018-07-24T04:18:09.868Z,2012.00
2018-07-24T04:19:09.858Z,2056.00
2018-07-24T04:20:09.848Z,2100.00
2018-07-24T04:21:09.856Z,2144.00
2018-07-24T04:22:09.823Z,2184.00
2018-07-24T04:23:09.814Z,2228.00
2018-07-24T04:24:09.817Z,2276.00
2018-07-24T04:25:09.793Z,2320.00
2018-07-24T04:26:09.795Z,2360.00
2018-07-24T04:27:09.786Z,2400.00
2018-07-24T04:28:09.760Z,2440.00
2018-07-24T04:29:09.749Z,2480.00
2018-07-24T04:30:09.736Z,2520.00
2018-07-24T04:31:09.785Z,2556.00
2018-07-24T04:32:09.723Z,2600.00
2018-07-24T04:33:09.702Z,2640.00
2018-07-24T04:34:09.694Z,2676.00
2018-07-24T04:35:09.686Z,2716.00
2018-07-24T04:36:09.673Z,2752.00
2018-07-24T04:37:09.681Z,2796.00
2018-07-24T04:38:09.652Z,2840.00
2018-07-24T04:39:09.640Z,2876.00
2018-07-24T04:40:09.688Z,2920.00
2018-07-24T04:41:09.622Z,2960.00
2018-07-24T04:42:09.618Z,2992.00
2018-07-24T04:43:09.618Z,3024.00
2018-07-24T04:44:09.587Z,3060.00
2018-07-24T04:45:09.576Z,3092.00
2018-07-24T04:46:09.564Z,3124.00
2018-07-24T04:47:09.552Z,3156.00
2018-07-24T04:48:09.541Z,3192.00
2018-07-24T04:49:09.542Z,3176.00
2018-07-24T04:50:09.520Z,3256.00
2018-07-24T04:51:09.522Z,3288.00
2018-07-24T04:52:09.501Z,3316.00
2018-07-24T04:53:09.490Z,3348.00
2018-07-24T04:54:09.489Z,3376.00
2018-07-24T04:55:09.469Z,3408.00
2018-07-24T04:56:09.460Z,3436.00
2018-07-24T04:57:09.448Z,3464.00
2018-07-24T04:58:09.438Z,3492.00
2018-07-24T04:59:09.434Z,3520.00
2018-07-24T05:00:09.424Z,3548.00
2018-07-24T05:01:09.405Z,3576.00
2018-07-24T05:02:09.392Z,3604.00
2018-07-24T05:03:09.420Z,3632.00
2018-07-24T05:04:09.372Z,3660.00
2018-07-24T05:05:09.372Z,3684.00
2018-07-24T05:06:09.351Z,3716.00
2018-07-24T05:07:09.338Z,3740.00
2018-07-24T05:08:09.329Z,3772.00
2018-07-24T05:09:09.317Z,3796.00
2018-07-24T05:10:09.329Z,3828.00
2018-07-24T05:11:09.296Z,3856.00
2018-07-24T05:12:09.287Z,3884.00
2018-07-24T05:13:09.276Z,3912.00
2018-07-24T05:14:09.264Z,3940.00
2018-07-24T05:15:09.254Z,3972.00
2018-07-24T05:16:09.260Z,4004.00
2018-07-24T05:17:09.230Z,4032.00
2018-07-24T05:18:09.223Z,4064.00
2018-07-24T05:19:09.209Z,4096.00
2018-07-24T05:20:09.197Z,4124.00
2018-07-24T05:21:09.186Z,4156.00
2018-07-24T05:22:09.189Z,4192.00
2018-07-24T05:23:09.165Z,4224.00
2018-07-24T05:24:09.157Z,4252.00
2018-07-24T05:25:09.143Z,4284.00
2018-07-24T05:26:09.146Z,4316.00
2018-07-24T05:27:09.123Z,4344.00
2018-07-24T05:28:09.114Z,4376.00
2018-07-24T05:29:09.101Z,4404.00
2018-07-24T05:30:09.092Z,4432.00
2018-07-24T05:31:09.092Z,4464.00
2018-07-24T05:32:09.082Z,4488.00
2018-07-24T05:33:09.092Z,4520.00
2018-07-24T05:34:09.050Z,4544.00
2018-07-24T05:35:09.038Z,4572.00
2018-07-24T05:36:09.028Z,4596.00
2018-07-24T05:37:09.056Z,4624.00
2018-07-24T05:38:09.003Z,4656.00
2018-07-24T05:39:08.992Z,4680.00
2018-07-24T05:40:08.984Z,4704.00
2018-07-24T05:41:08.971Z,4736.00
2018-07-24T05:42:08.962Z,4768.00
2018-07-24T05:43:08.961Z,4804.00
2018-07-24T05:44:08.940Z,4836.00
2018-07-24T05:45:08.932Z,4868.00
2018-07-24T05:46:08.921Z,4904.00
2018-07-24T05:47:08.927Z,4936.00
2018-07-24T05:48:08.896Z,4968.00
2018-07-24T05:49:08.886Z,4996.00
2018-07-24T05:50:08.875Z,5024.00
2018-07-24T05:51:08.867Z,5048.00
2018-07-24T05:52:08.851Z,5080.00
2018-07-24T05:53:08.862Z,5104.00
2018-07-24T05:54:08.833Z,5144.00
2018-07-24T05:55:08.835Z,5180.00
2018-07-24T05:56:08.809Z,5216.00
2018-07-24T05:57:08.798Z,5252.00
2018-07-24T05:58:08.788Z,5284.00
2018-07-24T05:59:08.790Z,5312.00
2018-07-24T06:00:08.765Z,5344.00
2018-07-24T06:01:08.756Z,5368.00
2018-07-24T06:02:08.746Z,5396.00
2018-07-24T06:03:08.749Z,5424.00
2018-07-24T06:04:08.723Z,5460.00
2018-07-24T06:05:08.711Z,5500.00
2018-07-24T06:06:08.703Z,5536.00
2018-07-24T06:07:08.690Z,5588.00
2018-07-24T06:08:08.698Z,5624.00
2018-07-24T06:09:08.669Z,5664.00
2018-07-24T06:10:08.662Z,5700.00
2018-07-24T06:11:08.647Z,5740.00
2018-07-24T06:12:08.638Z,5772.00
2018-07-24T06:13:08.671Z,5800.00
2018-07-24T06:14:08.631Z,5832.00
2018-07-24T06:15:08.611Z,5860.00
2018-07-24T06:16:08.598Z,5888.00
2018-07-24T06:17:08.637Z,5924.00
2018-07-24T06:18:08.574Z,5956.00
2018-07-24T06:19:08.578Z,5992.00
2018-07-24T06:20:08.556Z,6024.00
2018-07-24T06:21:08.547Z,6060.00
2018-07-24T06:22:08.536Z,6092.00
2018-07-24T06:23:08.524Z,6128.00
2018-07-24T06:24:08.532Z,6156.00
2018-07-24T06:25:08.516Z,6192.00
2018-07-24T06:26:08.491Z,6224.00
2018-07-24T06:27:08.483Z,6256.00
2018-07-24T06:28:08.472Z,6288.00
2018-07-24T06:29:08.461Z,6332.00
2018-07-24T06:30:08.464Z,6376.00
2018-07-24T06:31:08.439Z,6416.00
2018-07-24T06:32:08.425Z,6456.00
2018-07-24T06:33:08.414Z,6496.00
2018-07-24T06:34:08.406Z,6528.00
2018-07-24T06:35:08.481Z,6564.00
2018-07-24T06:36:08.384Z,6596.00
2018-07-24T06:37:08.371Z,6632.00
2018-07-24T06:38:08.359Z,6664.00
2018-07-24T06:39:08.351Z,6704.00
2018-07-24T06:40:08.339Z,6748.00
2018-07-24T06:41:08.339Z,6796.00
2018-07-24T06:42:08.334Z,6844.00
2018-07-24T06:43:08.302Z,6884.00
2018-07-24T06:44:08.298Z,6936.00
2018-07-24T06:45:08.283Z,6976.00
2018-07-24T06:46:08.271Z,7008.00
2018-07-24T06:47:08.261Z,7052.00
2018-07-24T06:48:08.260Z,7096.00
2018-07-24T06:49:08.239Z,7152.00
2018-07-24T06:50:08.229Z,7212.00
2018-07-24T06:51:08.270Z,7284.00
2018-07-24T06:52:08.222Z,7344.00
2018-07-24T06:53:08.194Z,7400.00
2018-07-24T06:54:08.186Z,7456.00
2018-07-24T06:55:08.175Z,7508.00
2018-07-24T06:56:08.165Z,7568.00
2018-07-24T06:57:08.172Z,7692.00
2018-07-24T06:58:08.144Z,7920.00
2018-07-24T06:59:08.131Z,8280.00
2018-07-24T07:00:08.124Z,10080.00
2018-07-24T07:01:08.113Z,26592.00
2018-07-24T07:02:08.208Z,39968.00
2018-07-24T07:03:08.105Z,39744.00
2018-07-24T07:04:08.080Z,40704.00
2018-07-24T07:05:08.152Z,40896.00
2018-07-24T07:06:08.060Z,39808.00
2018-07-24T07:07:08.059Z,40224.00
2018-07-24T07:08:08.035Z,41152.00
2018-07-24T07:09:08.029Z,40640.00
2018-07-24T07:10:08.037Z,37664.00
2018-07-24T07:11:08.005Z,37184.00
2018-07-24T07:12:08.010Z,39840.00
2018-07-24T07:13:08.045Z,40640.00
2018-07-24T07:14:07.988Z,42592.00
2018-07-24T07:15:07.963Z,43360.00
2018-07-24T07:16:07.972Z,42592.00
2018-07-24T07:17:07.958Z,43232.00
2018-07-24T07:18:07.934Z,44064.00
2018-07-24T07:19:07.921Z,42240.00
2018-07-24T07:20:07.928Z,42176.00
2018-07-24T07:21:07.903Z,44192.00
2018-07-24T07:22:07.901Z,46176.00
2018-07-24T07:23:07.882Z,45984.00
2018-07-24T07:24:07.869Z,46016.00
2018-07-24T07:25:07.865Z,46240.00
2018-07-24T07:26:07.867Z,46784.00
2018-07-24T07:27:07.838Z,47264.00
2018-07-24T07:28:07.836Z,47808.00
2018-07-24T07:29:07.843Z,45984.00
2018-07-24T07:30:07.806Z,45472.00
2018-07-24T07:31:07.809Z,49216.00
2018-07-24T07:32:07.814Z,51936.00
2018-07-24T07:33:07.777Z,52064.00
2018-07-24T07:34:07.766Z,52736.00
2018-07-24T07:35:07.769Z,53216.00
2018-07-24T07:36:07.745Z,52640.00
2018-07-24T07:37:07.735Z,53536.00
2018-07-24T07:38:07.728Z,54752.00
2018-07-24T07:39:07.727Z,55776.00
2018-07-24T07:40:07.719Z,57344.00
2018-07-24T07:41:07.696Z,58784.00
2018-07-24T07:42:07.700Z,57856.00
2018-07-24T07:43:07.672Z,58848.00
2018-07-24T07:44:07.665Z,60640.00
2018-07-24T07:45:07.656Z,61056.00
2018-07-24T07:46:07.659Z,61472.00
2018-07-24T07:47:07.658Z,61600.00
2018-07-24T07:48:07.622Z,62432.00
2018-07-24T07:49:07.615Z,63872.00
2018-07-24T07:50:07.602Z,63392.00
2018-07-24T07:51:07.595Z,63616.00
2018-07-24T07:52:07.585Z,62976.00
2018-07-24T07:53:07.588Z,60128.00
2018-07-24T07:54:07.566Z,60640.00
2018-07-24T07:55:07.555Z,63168.00
2018-07-24T07:56:07.542Z,63232.00
2018-07-24T07:57:07.536Z,65056.00
2018-07-24T07:58:07.557Z,65056.00
2018-07-24T07:59:07.520Z,64832.00
2018-07-24T08:00:07.506Z,66048.00
2018-07-24T08:01:07.496Z,64800.00
2018-07-24T08:02:07.486Z,61792.00
2018-07-24T08:03:07.491Z,63200.00
2018-07-24T08:04:07.466Z,65312.00
2018-07-24T08:05:07.453Z,65408.00
2018-07-24T08:06:07.445Z,66176.00
2018-07-24T08:07:07.433Z,64288.00
2018-07-24T08:08:07.435Z,64672.00
2018-07-24T08:09:07.434Z,65280.00
2018-07-24T08:10:07.401Z,65088.00
2018-07-24T08:11:07.393Z,67648.00
2018-07-24T08:12:07.384Z,68800.00
2018-07-24T08:13:07.376Z,69056.00
2018-07-24T08:14:07.395Z,68352.00
2018-07-24T08:15:07.369Z,68224.00
2018-07-24T08:16:07.343Z,69824.00
2018-07-24T08:17:07.335Z,71520.00
2018-07-24T08:18:07.324Z,70368.00
2018-07-24T08:19:07.315Z,70496.00
2018-07-24T08:20:07.319Z,70880.00
2018-07-24T08:21:07.292Z,72672.00
2018-07-24T08:22:07.283Z,75808.00
2018-07-24T08:23:07.270Z,80160.00
2018-07-24T08:24:07.263Z,83488.00
2018-07-24T08:25:07.275Z,88704.00
2018-07-24T08:26:07.246Z,80064.00
2018-07-24T08:27:07.232Z,50560.00
2018-07-24T08:28:07.234Z,37568.00
2018-07-24T08:29:07.217Z,57696.00
2018-07-24T08:30:07.204Z,82112.00
2018-07-24T08:31:07.215Z,88224.00
2018-07-24T08:32:07.184Z,83104.00
2018-07-24T08:33:07.178Z,77824.00
2018-07-24T08:34:07.183Z,77280.00
2018-07-24T08:35:07.163Z,78240.00
2018-07-24T08:36:07.163Z,77280.00
2018-07-24T08:37:07.138Z,75968.00
2018-07-24T08:38:07.128Z,75872.00
2018-07-24T08:39:07.119Z,75424.00
2018-07-24T08:40:07.109Z,77440.00
2018-07-24T08:41:07.116Z,79616.00
2018-07-24T08:42:07.090Z,80768.00
2018-07-24T08:43:07.078Z,79456.00
2018-07-24T08:44:07.068Z,80448.00
2018-07-24T08:45:07.058Z,79776.00
2018-07-24T08:46:07.048Z,79680.00
2018-07-24T08:47:07.053Z,80096.00
2018-07-24T08:48:07.049Z,81472.00
2018-07-24T08:49:07.023Z,79552.00
2018-07-24T08:50:07.013Z,77728.00
2018-07-24T08:51:07.007Z,78240.00
2018-07-24T08:52:07.007Z,81760.00
2018-07-24T08:53:07.175Z,84032.00
2018-07-24T08:54:07.114Z,84960.00
2018-07-24T08:55:07.170Z,84928.00
2018-07-24T08:56:06.950Z,83456.00
2018-07-24T08:57:06.958Z,84256.00
2018-07-24T08:58:06.934Z,81952.00
2018-07-24T08:59:06.922Z,82272.00
2018-07-24T09:00:06.912Z,85440.00
2018-07-24T09:01:06.906Z,88192.00
2018-07-24T09:02:06.909Z,87296.00
2018-07-24T09:03:06.939Z,86880.00
2018-07-24T09:04:06.898Z,86400.00
2018-07-24T09:05:06.863Z,85088.00
2018-07-24T09:06:06.858Z,85984.00
2018-07-24T09:07:06.843Z,86848.00
2018-07-24T09:08:06.848Z,85056.00
2018-07-24T09:09:06.845Z,84192.00
2018-07-24T09:10:06.838Z,84960.00
2018-07-24T09:11:06.804Z,85856.00
2018-07-24T09:12:06.797Z,85408.00
2018-07-24T09:13:06.784Z,85888.00
2018-07-24T09:14:06.778Z,88096.00
2018-07-24T09:15:06.780Z,88000.00
2018-07-24T09:16:06.759Z,87328.00
2018-07-24T09:17:06.748Z,88384.00
2018-07-24T09:18:06.739Z,88864.00
2018-07-24T09:19:06.726Z,84800.00
2018-07-24T09:20:06.730Z,83936.00
2018-07-24T09:21:06.709Z,87520.00
2018-07-24T09:22:06.697Z,89216.00
2018-07-24T09:23:06.702Z,88800.00
2018-07-24T09:24:06.683Z,89568.00
2018-07-24T09:25:06.683Z,90464.00
2018-07-24T09:26:06.659Z,90176.00
2018-07-24T09:27:06.718Z,87648.00
2018-07-24T09:28:06.656Z,90720.00
2018-07-24T09:29:06.639Z,91200.00
2018-07-24T09:30:06.626Z,91680.00
2018-07-24T09:31:06.630Z,93952.00
2018-07-24T09:32:06.668Z,94272.00
2018-07-24T09:33:06.609Z,93600.00
2018-07-24T09:34:06.586Z,93952.00
2018-07-24T09:35:06.578Z,93408.00
2018-07-24T09:36:06.566Z,95552.00
2018-07-24T09:37:06.560Z,93632.00
2018-07-24T09:38:06.559Z,93696.00
2018-07-24T09:39:06.540Z,96992.00
2018-07-24T09:40:06.530Z,96768.00
2018-07-24T09:41:06.528Z,95136.00
2018-07-24T09:42:06.513Z,93248.00
2018-07-24T09:43:06.525Z,93472.00
2018-07-24T09:44:06.491Z,94464.00
2018-07-24T09:45:06.481Z,98752.00
2018-07-24T09:46:06.469Z,97760.00
2018-07-24T09:47:06.463Z,98240.00
2018-07-24T09:48:06.450Z,99136.00
2018-07-24T09:49:06.461Z,98560.00
2018-07-24T09:50:06.430Z,98368.00
2018-07-24T09:51:06.422Z,99008.00
2018-07-24T09:52:06.409Z,100032.00
2018-07-24T09:53:06.401Z,102656.00
2018-07-24T09:54:06.393Z,103264.00
2018-07-24T09:55:06.399Z,101568.00
2018-07-24T09:56:06.373Z,102144.00
2018-07-24T09:57:06.379Z,104544.00
2018-07-24T09:58:06.359Z,103552.00
2018-07-24T09:59:06.345Z,102592.00
2018-07-24T10:00:06.354Z,101792.00
2018-07-24T10:01:06.329Z,106400.00
2018-07-24T10:02:06.320Z,107808.00
2018-07-24T10:03:06.309Z,104256.00
2018-07-24T10:04:06.303Z,102784.00
2018-07-24T10:05:06.304Z,102592.00
2018-07-24T10:06:06.297Z,106016.00
2018-07-24T10:07:06.273Z,103360.00
2018-07-24T10:08:06.266Z,102592.00
2018-07-24T10:09:06.253Z,104768.00
2018-07-24T10:10:06.286Z,101696.00
2018-07-24T10:11:06.326Z,102752.00
2018-07-24T10:12:06.298Z,103936.00
2018-07-24T10:13:06.372Z,104192.00
2018-07-24T10:14:06.209Z,104864.00
2018-07-24T10:15:06.209Z,105184.00
2018-07-24T10:16:06.207Z,104768.00
2018-07-24T10:17:06.181Z,104608.00
2018-07-24T10:18:06.172Z,105792.00
2018-07-24T10:19:06.163Z,107648.00
2018-07-24T10:20:06.153Z,105312.00
2018-07-24T10:21:06.164Z,106752.00
2018-07-24T10:22:06.135Z,103648.00
2018-07-24T10:23:06.125Z,100800.00
2018-07-24T10:24:06.117Z,104064.00
2018-07-24T10:25:06.109Z,105632.00
2018-07-24T10:26:06.118Z,104320.00
2018-07-24T10:27:06.090Z,105888.00
2018-07-24T10:28:06.084Z,104416.00
2018-07-24T10:29:06.070Z,104896.00
2018-07-24T10:30:06.067Z,107392.00
2018-07-24T10:31:06.070Z,111200.00
2018-07-24T10:32:06.046Z,110432.00
2018-07-24T10:33:06.075Z,108608.00
2018-07-24T10:34:06.025Z,108352.00
2018-07-24T10:35:06.019Z,108192.00
2018-07-24T10:36:06.009Z,108704.00
2018-07-24T10:37:05.999Z,106400.00
2018-07-24T10:38:05.992Z,108672.00
2018-07-24T10:39:05.996Z,107072.00
2018-07-24T10:40:05.974Z,106080.00
2018-07-24T10:41:05.964Z,110240.00
2018-07-24T10:42:05.967Z,111552.00
2018-07-24T10:43:05.954Z,111328.00
2018-07-24T10:44:05.979Z,111232.00
2018-07-24T10:45:05.932Z,107200.00
2018-07-24T10:46:05.919Z,106816.00
2018-07-24T10:47:05.911Z,107520.00
2018-07-24T10:48:05.899Z,108320.00
2018-07-24T10:49:05.889Z,109248.00
2018-07-24T10:50:05.893Z,109024.00
2018-07-24T10:51:05.871Z,108448.00
2018-07-24T10:52:05.865Z,108736.00
2018-07-24T10:53:05.853Z,111296.00
2018-07-24T10:54:05.848Z,110144.00
2018-07-24T10:55:05.854Z,109248.00
2018-07-24T10:56:05.830Z,109344.00
2018-07-24T10:57:05.821Z,106144.00
2018-07-24T10:58:05.814Z,108256.00
2018-07-24T10:59:05.816Z,109504.00
2018-07-24T11:00:05.808Z,111168.00
2018-07-24T11:01:05.782Z,113120.00
2018-07-24T11:02:05.795Z,111232.00
2018-07-24T11:03:05.763Z,110368.00
2018-07-24T11:04:05.765Z,106880.00
2018-07-24T11:05:05.745Z,106208.00
2018-07-24T11:06:05.751Z,107296.00
2018-07-24T11:07:05.730Z,102464.00
2018-07-24T11:08:05.746Z,105760.00
2018-07-24T11:09:05.708Z,106528.00
2018-07-24T11:10:05.700Z,109920.00
2018-07-24T11:11:05.763Z,110272.00
2018-07-24T11:12:05.683Z,109856.00
2018-07-24T11:13:05.675Z,110208.00
2018-07-24T11:14:05.687Z,110784.00
2018-07-24T11:15:05.658Z,111200.00
2018-07-24T11:16:05.646Z,108864.00
2018-07-24T11:17:05.640Z,107712.00
2018-07-24T11:18:05.630Z,108352.00
2018-07-24T11:19:05.620Z,110912.00
2018-07-24T11:20:10.762Z,110144.00
2018-07-24T11:21:05.601Z,110656.00
2018-07-24T11:22:05.728Z,112768.00
2018-07-24T11:23:05.725Z,107488.00
2018-07-24T11:24:05.611Z,107520.00
2018-07-24T11:25:05.580Z,108512.00
2018-07-24T11:26:05.561Z,109504.00
2018-07-24T11:27:05.548Z,109536.00
2018-07-24T11:28:05.555Z,109216.00
2018-07-24T11:29:05.529Z,110272.00
2018-07-24T11:30:05.531Z,110432.00
2018-07-24T11:31:05.512Z,108480.00
2018-07-24T11:32:05.502Z,109056.00
2018-07-24T11:33:05.549Z,108832.00
2018-07-24T11:34:05.484Z,107424.00
2018-07-24T11:35:05.486Z,105184.00
2018-07-24T11:36:05.587Z,105536.00
2018-07-24T11:37:05.458Z,105248.00
2018-07-24T11:38:05.452Z,104320.00
2018-07-24T11:39:05.440Z,107264.00
2018-07-24T11:40:05.445Z,107360.00
2018-07-24T11:41:05.498Z,108512.00
2018-07-24T11:42:05.411Z,109056.00
2018-07-24T11:43:05.404Z,110176.00
2018-07-24T11:44:05.451Z,109952.00
2018-07-24T11:45:05.385Z,108576.00
2018-07-24T11:46:05.392Z,109984.00
2018-07-24T11:47:05.367Z,109888.00
2018-07-24T11:48:05.357Z,109056.00
2018-07-24T11:49:05.366Z,109152.00
2018-07-24T11:50:05.340Z,108544.00
2018-07-24T11:51:05.345Z,109056.00
2018-07-24T11:52:05.334Z,108896.00
2018-07-24T11:53:05.312Z,110144.00
2018-07-24T11:54:05.306Z,107648.00
2018-07-24T11:55:05.310Z,106112.00
2018-07-24T11:56:05.286Z,105312.00
2018-07-24T11:57:05.294Z,105088.00
2018-07-24T11:58:05.267Z,104000.00
2018-07-24T11:59:05.259Z,105536.00
2018-07-24T12:00:05.269Z,105312.00
2018-07-24T12:01:05.241Z,101760.00
2018-07-24T12:02:05.234Z,101664.00
2018-07-24T12:03:05.223Z,100384.00
2018-07-24T12:04:05.214Z,100288.00
2018-07-24T12:05:05.205Z,103136.00
2018-07-24T12:06:05.211Z,103232.00
2018-07-24T12:07:05.186Z,103968.00
2018-07-24T12:08:05.195Z,102976.00
2018-07-24T12:09:05.182Z,103168.00
2018-07-24T12:10:05.159Z,104576.00
2018-07-24T12:11:05.165Z,104608.00